sensor_id;sensor_type;location;lat;lon;timestamp;P1;durP1;ratioP1;P2;durP2;ratioP2
7753;SDS011;3921;42.266;23.122;2023-05-14T00:00:28;5.03;;;4.50;;
7753;SDS011;3921;42.266;23.122;2023-05-14T00:02:55;5.63;;;4.20;;
7753;SDS011;3921;42.266;23.122;2023-05-14T00:05:22;6.60;;;4.20;;
7753;SDS011;3921;42.266;23.122;2023-05-14T00:07:49;5.30;;;3.80;;
7753;SDS011;3921;42.266;23.122;2023-05-14T00:10:16;6.63;;;4.60;;
7753;SDS011;3921;42.266;23.122;2023-05-14T00:12:44;6.17;;;4.47;;
7753;SDS011;3921;42.266;23.122;2023-05-14T00:15:13;4.50;;;4.10;;
7753;SDS011;3921;42.266;23.122;2023-05-14T00:17:39;6.20;;;4.77;;
7753;SDS011;3921;42.266;23.122;2023-05-14T00:20:07;6.07;;;4.07;;
7753;SDS011;3921;42.266;23.122;2023-05-14T00:22:36;5.87;;;4.50;;
7753;SDS011;3921;42.266;23.122;2023-05-14T00:25:04;4.87;;;4.20;;
7753;SDS011;3921;42.266;23.122;2023-05-14T00:27:31;5.23;;;4.20;;
7753;SDS011;3921;42.266;23.122;2023-05-14T00:29:58;6.13;;;4.30;;
7753;SDS011;3921;42.266;23.122;2023-05-14T00:32:27;5.87;;;4.27;;
7753;SDS011;3921;42.266;23.122;2023-05-14T00:34:53;6.50;;;4.37;;
7753;SDS011;3921;42.266;23.122;2023-05-14T00:37:21;5.37;;;4.13;;
7753;SDS011;3921;42.266;23.122;2023-05-14T00:39:48;7.40;;;4.43;;
7753;SDS011;3921;42.266;23.122;2023-05-14T00:42:21;4.70;;;4.27;;
7753;SDS011;3921;42.266;23.122;2023-05-14T00:44:52;6.03;;;4.67;;
7753;SDS011;3921;42.266;23.122;2023-05-14T00:47:28;5.80;;;4.70;;
7753;SDS011;3921;42.266;23.122;2023-05-14T00:49:55;6.77;;;4.30;;
7753;SDS011;3921;42.266;23.122;2023-05-14T00:52:22;6.10;;;4.70;;
7753;SDS011;3921;42.266;23.122;2023-05-14T00:54:49;5.03;;;4.53;;
7753;SDS011;3921;42.266;23.122;2023-05-14T00:57:16;7.90;;;4.33;;
7753;SDS011;3921;42.266;23.122;2023-05-14T00:59:44;5.50;;;4.40;;
7753;SDS011;3921;42.266;23.122;2023-05-14T01:02:11;5.10;;;4.30;;
7753;SDS011;3921;42.266;23.122;2023-05-14T01:04:39;6.13;;;4.60;;
7753;SDS011;3921;42.266;23.122;2023-05-14T01:07:08;5.70;;;4.30;;
7753;SDS011;3921;42.266;23.122;2023-05-14T01:09:47;5.63;;;4.40;;
7753;SDS011;3921;42.266;23.122;2023-05-14T01:12:21;5.90;;;5.03;;
7753;SDS011;3921;42.266;23.122;2023-05-14T01:14:57;5.63;;;4.33;;
7753;SDS011;3921;42.266;23.122;2023-05-14T01:17:42;7.00;;;4.73;;
7753;SDS011;3921;42.266;23.122;2023-05-14T01:20:13;6.10;;;4.60;;
7753;SDS011;3921;42.266;23.122;2023-05-14T01:22:43;5.70;;;4.70;;
7753;SDS011;3921;42.266;23.122;2023-05-14T01:25:12;8.70;;;5.23;;
7753;SDS011;3921;42.266;23.122;2023-05-14T01:27:48;6.57;;;5.20;;
7753;SDS011;3921;42.266;23.122;2023-05-14T01:30:25;6.40;;;5.00;;
7753;SDS011;3921;42.266;23.122;2023-05-14T01:32:58;7.97;;;5.13;;
7753;SDS011;3921;42.266;23.122;2023-05-14T01:35:28;9.10;;;4.73;;
7753;SDS011;3921;42.266;23.122;2023-05-14T01:37:58;5.37;;;4.87;;
7753;SDS011;3921;42.266;23.122;2023-05-14T01:40:26;7.17;;;5.00;;
7753;SDS011;3921;42.266;23.122;2023-05-14T01:42:54;5.20;;;4.70;;
7753;SDS011;3921;42.266;23.122;2023-05-14T01:45:21;5.10;;;4.30;;
7753;SDS011;3921;42.266;23.122;2023-05-14T01:47:49;6.20;;;4.70;;
7753;SDS011;3921;42.266;23.122;2023-05-14T01:50:16;5.80;;;4.97;;
7753;SDS011;3921;42.266;23.122;2023-05-14T01:52:43;7.13;;;5.27;;
7753;SDS011;3921;42.266;23.122;2023-05-14T01:55:13;6.60;;;4.80;;
7753;SDS011;3921;42.266;23.122;2023-05-14T01:57:42;8.93;;;5.23;;
7753;SDS011;3921;42.266;23.122;2023-05-14T02:00:09;5.93;;;4.80;;
7753;SDS011;3921;42.266;23.122;2023-05-14T02:02:36;6.67;;;4.80;;
7753;SDS011;3921;42.266;23.122;2023-05-14T02:05:03;6.37;;;5.00;;
7753;SDS011;3921;42.266;23.122;2023-05-14T02:07:31;5.23;;;4.83;;
7753;SDS011;3921;42.266;23.122;2023-05-14T02:09:58;5.67;;;4.97;;
7753;SDS011;3921;42.266;23.122;2023-05-14T02:12:26;6.67;;;4.87;;
7753;SDS011;3921;42.266;23.122;2023-05-14T02:14:53;5.77;;;5.10;;
7753;SDS011;3921;42.266;23.122;2023-05-14T02:17:20;7.33;;;5.30;;
7753;SDS011;3921;42.266;23.122;2023-05-14T02:19:47;7.93;;;5.53;;
7753;SDS011;3921;42.266;23.122;2023-05-14T02:22:14;5.50;;;5.00;;
7753;SDS011;3921;42.266;23.122;2023-05-14T02:24:41;6.63;;;5.93;;
7753;SDS011;3921;42.266;23.122;2023-05-14T02:27:07;6.20;;;5.60;;
7753;SDS011;3921;42.266;23.122;2023-05-14T02:29:38;5.93;;;4.40;;
7753;SDS011;3921;42.266;23.122;2023-05-14T02:32:05;7.10;;;4.90;;
7753;SDS011;3921;42.266;23.122;2023-05-14T02:34:32;7.40;;;5.37;;
7753;SDS011;3921;42.266;23.122;2023-05-14T02:36:59;6.07;;;5.10;;
7753;SDS011;3921;42.266;23.122;2023-05-14T02:39:27;7.27;;;5.43;;
7753;SDS011;3921;42.266;23.122;2023-05-14T02:41:53;6.47;;;5.67;;
7753;SDS011;3921;42.266;23.122;2023-05-14T02:44:20;6.63;;;5.07;;
7753;SDS011;3921;42.266;23.122;2023-05-14T02:46:49;6.23;;;5.23;;
7753;SDS011;3921;42.266;23.122;2023-05-14T02:49:15;5.93;;;5.20;;
7753;SDS011;3921;42.266;23.122;2023-05-14T02:51:42;6.33;;;5.33;;
7753;SDS011;3921;42.266;23.122;2023-05-14T02:54:09;7.00;;;5.37;;
7753;SDS011;3921;42.266;23.122;2023-05-14T02:56:36;6.33;;;5.73;;
7753;SDS011;3921;42.266;23.122;2023-05-14T02:59:03;6.67;;;5.90;;
7753;SDS011;3921;42.266;23.122;2023-05-14T03:01:30;7.13;;;5.30;;
7753;SDS011;3921;42.266;23.122;2023-05-14T03:03:58;6.07;;;5.30;;
7753;SDS011;3921;42.266;23.122;2023-05-14T03:06:25;6.37;;;5.70;;
7753;SDS011;3921;42.266;23.122;2023-05-14T03:08:52;10.00;;;6.00;;
7753;SDS011;3921;42.266;23.122;2023-05-14T03:11:19;6.77;;;5.33;;
7753;SDS011;3921;42.266;23.122;2023-05-14T03:13:46;5.43;;;4.90;;
7753;SDS011;3921;42.266;23.122;2023-05-14T03:16:13;7.53;;;5.07;;
7753;SDS011;3921;42.266;23.122;2023-05-14T03:18:39;5.73;;;4.33;;
7753;SDS011;3921;42.266;23.122;2023-05-14T03:21:08;6.33;;;4.20;;
7753;SDS011;3921;42.266;23.122;2023-05-14T03:23:35;6.43;;;4.37;;
7753;SDS011;3921;42.266;23.122;2023-05-14T03:26:02;4.30;;;3.90;;
7753;SDS011;3921;42.266;23.122;2023-05-14T03:28:29;4.73;;;4.20;;
7753;SDS011;3921;42.266;23.122;2023-05-14T03:30:56;5.87;;;4.27;;
7753;SDS011;3921;42.266;23.122;2023-05-14T03:33:23;7.10;;;4.27;;
7753;SDS011;3921;42.266;23.122;2023-05-14T03:35:50;8.63;;;4.57;;
7753;SDS011;3921;42.266;23.122;2023-05-14T03:38:18;5.27;;;4.10;;
7753;SDS011;3921;42.266;23.122;2023-05-14T03:40:45;4.80;;;4.30;;
7753;SDS011;3921;42.266;23.122;2023-05-14T03:43:12;5.97;;;4.40;;
7753;SDS011;3921;42.266;23.122;2023-05-14T03:45:39;5.47;;;4.33;;
7753;SDS011;3921;42.266;23.122;2023-05-14T03:48:06;5.50;;;4.23;;
7753;SDS011;3921;42.266;23.122;2023-05-14T03:50:33;4.27;;;3.87;;
7753;SDS011;3921;42.266;23.122;2023-05-14T03:53:00;6.77;;;4.23;;
7753;SDS011;3921;42.266;23.122;2023-05-14T03:55:28;6.50;;;4.97;;
7753;SDS011;3921;42.266;23.122;2023-05-14T03:57:55;4.50;;;4.10;;
7753;SDS011;3921;42.266;23.122;2023-05-14T04:00:22;5.47;;;4.20;;
7753;SDS011;3921;42.266;23.122;2023-05-14T04:02:49;5.70;;;4.60;;
7753;SDS011;3921;42.266;23.122;2023-05-14T04:05:16;6.10;;;5.40;;
7753;SDS011;3921;42.266;23.122;2023-05-14T04:07:43;6.97;;;5.50;;
7753;SDS011;3921;42.266;23.122;2023-05-14T04:10:10;6.73;;;4.77;;
7753;SDS011;3921;42.266;23.122;2023-05-14T04:12:39;5.03;;;4.50;;
7753;SDS011;3921;42.266;23.122;2023-05-14T04:15:07;9.00;;;4.60;;
7753;SDS011;3921;42.266;23.122;2023-05-14T04:17:35;6.70;;;4.37;;
7753;SDS011;3921;42.266;23.122;2023-05-14T04:20:02;5.40;;;4.10;;
7753;SDS011;3921;42.266;23.122;2023-05-14T04:22:29;5.90;;;3.90;;
7753;SDS011;3921;42.266;23.122;2023-05-14T04:24:56;5.20;;;4.20;;
7753;SDS011;3921;42.266;23.122;2023-05-14T04:27:23;4.57;;;3.63;;
7753;SDS011;3921;42.266;23.122;2023-05-14T04:29:51;5.33;;;4.77;;
7753;SDS011;3921;42.266;23.122;2023-05-14T04:32:18;7.07;;;4.00;;
7753;SDS011;3921;42.266;23.122;2023-05-14T04:34:45;8.13;;;3.93;;
7753;SDS011;3921;42.266;23.122;2023-05-14T04:37:12;7.27;;;4.23;;
7753;SDS011;3921;42.266;23.122;2023-05-14T04:39:41;7.03;;;4.70;;
7753;SDS011;3921;42.266;23.122;2023-05-14T04:42:10;6.33;;;4.77;;
7753;SDS011;3921;42.266;23.122;2023-05-14T04:44:37;8.23;;;4.53;;
7753;SDS011;3921;42.266;23.122;2023-05-14T04:47:06;8.40;;;5.80;;
7753;SDS011;3921;42.266;23.122;2023-05-14T04:49:33;11.00;;;6.13;;
7753;SDS011;3921;42.266;23.122;2023-05-14T04:52:00;7.93;;;6.40;;
7753;SDS011;3921;42.266;23.122;2023-05-14T04:54:27;8.87;;;5.43;;
7753;SDS011;3921;42.266;23.122;2023-05-14T04:56:53;6.13;;;4.90;;
7753;SDS011;3921;42.266;23.122;2023-05-14T04:59:21;5.43;;;4.57;;
7753;SDS011;3921;42.266;23.122;2023-05-14T05:01:47;7.63;;;5.13;;
7753;SDS011;3921;42.266;23.122;2023-05-14T05:04:17;5.73;;;4.87;;
7753;SDS011;3921;42.266;23.122;2023-05-14T05:06:48;5.80;;;4.43;;
7753;SDS011;3921;42.266;23.122;2023-05-14T05:09:14;6.07;;;5.37;;
7753;SDS011;3921;42.266;23.122;2023-05-14T05:11:43;8.77;;;6.53;;
7753;SDS011;3921;42.266;23.122;2023-05-14T05:14:10;9.73;;;7.13;;
7753;SDS011;3921;42.266;23.122;2023-05-14T05:16:36;7.93;;;5.90;;
7753;SDS011;3921;42.266;23.122;2023-05-14T05:19:03;6.80;;;4.97;;
7753;SDS011;3921;42.266;23.122;2023-05-14T05:21:32;9.03;;;5.20;;
7753;SDS011;3921;42.266;23.122;2023-05-14T05:23:59;8.23;;;5.90;;
7753;SDS011;3921;42.266;23.122;2023-05-14T05:26:26;7.63;;;5.30;;
7753;SDS011;3921;42.266;23.122;2023-05-14T05:28:52;6.17;;;5.07;;
7753;SDS011;3921;42.266;23.122;2023-05-14T05:31:19;6.13;;;5.03;;
7753;SDS011;3921;42.266;23.122;2023-05-14T05:33:46;8.07;;;5.57;;
7753;SDS011;3921;42.266;23.122;2023-05-14T05:36:13;7.73;;;4.90;;
7753;SDS011;3921;42.266;23.122;2023-05-14T05:38:42;7.67;;;5.80;;
7753;SDS011;3921;42.266;23.122;2023-05-14T05:41:08;6.50;;;4.83;;
7753;SDS011;3921;42.266;23.122;2023-05-14T05:43:35;9.17;;;7.60;;
7753;SDS011;3921;42.266;23.122;2023-05-14T05:46:02;9.63;;;7.73;;
7753;SDS011;3921;42.266;23.122;2023-05-14T05:48:29;7.07;;;5.90;;
7753;SDS011;3921;42.266;23.122;2023-05-14T05:50:56;7.30;;;5.57;;
7753;SDS011;3921;42.266;23.122;2023-05-14T05:53:23;6.40;;;5.43;;
7753;SDS011;3921;42.266;23.122;2023-05-14T05:55:52;5.37;;;4.87;;
7753;SDS011;3921;42.266;23.122;2023-05-14T05:58:19;5.43;;;4.83;;
7753;SDS011;3921;42.266;23.122;2023-05-14T06:00:46;6.33;;;5.30;;
7753;SDS011;3921;42.266;23.122;2023-05-14T06:03:13;7.33;;;5.60;;
7753;SDS011;3921;42.266;23.122;2023-05-14T06:05:40;7.90;;;5.80;;
7753;SDS011;3921;42.266;23.122;2023-05-14T06:08:07;6.80;;;5.70;;
7753;SDS011;3921;42.266;23.122;2023-05-14T06:10:34;7.43;;;6.13;;
7753;SDS011;3921;42.266;23.122;2023-05-14T06:13:03;7.07;;;6.07;;
7753;SDS011;3921;42.266;23.122;2023-05-14T06:15:30;7.37;;;6.20;;
7753;SDS011;3921;42.266;23.122;2023-05-14T06:17:57;7.43;;;6.20;;
7753;SDS011;3921;42.266;23.122;2023-05-14T06:20:24;8.93;;;6.60;;
7753;SDS011;3921;42.266;23.122;2023-05-14T06:22:51;7.63;;;6.00;;
7753;SDS011;3921;42.266;23.122;2023-05-14T06:25:18;11.13;;;5.93;;
7753;SDS011;3921;42.266;23.122;2023-05-14T06:27:45;7.63;;;5.87;;
7753;SDS011;3921;42.266;23.122;2023-05-14T06:30:14;8.70;;;5.80;;
7753;SDS011;3921;42.266;23.122;2023-05-14T06:32:41;7.87;;;5.57;;
7753;SDS011;3921;42.266;23.122;2023-05-14T06:35:08;7.10;;;5.47;;
7753;SDS011;3921;42.266;23.122;2023-05-14T06:37:35;7.23;;;5.37;;
7753;SDS011;3921;42.266;23.122;2023-05-14T06:40:02;7.23;;;5.80;;
7753;SDS011;3921;42.266;23.122;2023-05-14T06:42:30;7.87;;;5.30;;
7753;SDS011;3921;42.266;23.122;2023-05-14T06:44:57;7.30;;;5.30;;
7753;SDS011;3921;42.266;23.122;2023-05-14T06:47:25;8.67;;;5.77;;
7753;SDS011;3921;42.266;23.122;2023-05-14T06:49:52;8.63;;;5.67;;
7753;SDS011;3921;42.266;23.122;2023-05-14T06:52:20;8.57;;;6.97;;
7753;SDS011;3921;42.266;23.122;2023-05-14T06:54:46;11.07;;;8.53;;
7753;SDS011;3921;42.266;23.122;2023-05-14T06:57:13;10.67;;;8.70;;
7753;SDS011;3921;42.266;23.122;2023-05-14T06:59:40;13.00;;;9.50;;
7753;SDS011;3921;42.266;23.122;2023-05-14T07:02:07;12.97;;;10.10;;
7753;SDS011;3921;42.266;23.122;2023-05-14T07:04:36;14.77;;;9.17;;
7753;SDS011;3921;42.266;23.122;2023-05-14T07:07:03;9.87;;;7.97;;
7753;SDS011;3921;42.266;23.122;2023-05-14T07:09:30;11.03;;;8.60;;
7753;SDS011;3921;42.266;23.122;2023-05-14T07:11:57;10.70;;;8.40;;
7753;SDS011;3921;42.266;23.122;2023-05-14T07:14:24;11.70;;;7.90;;
7753;SDS011;3921;42.266;23.122;2023-05-14T07:16:51;10.97;;;7.70;;
7753;SDS011;3921;42.266;23.122;2023-05-14T07:19:17;11.37;;;9.10;;
7753;SDS011;3921;42.266;23.122;2023-05-14T07:21:47;12.90;;;10.37;;
7753;SDS011;3921;42.266;23.122;2023-05-14T07:24:15;12.17;;;9.17;;
7753;SDS011;3921;42.266;23.122;2023-05-14T07:26:42;10.37;;;8.73;;
7753;SDS011;3921;42.266;23.122;2023-05-14T07:29:09;13.07;;;9.97;;
7753;SDS011;3921;42.266;23.122;2023-05-14T07:31:35;12.07;;;9.13;;
7753;SDS011;3921;42.266;23.122;2023-05-14T07:34:02;11.13;;;8.57;;
7753;SDS011;3921;42.266;23.122;2023-05-14T07:36:29;18.33;;;11.57;;
7753;SDS011;3921;42.266;23.122;2023-05-14T07:38:58;16.83;;;10.30;;
7753;SDS011;3921;42.266;23.122;2023-05-14T07:41:25;13.87;;;9.03;;
7753;SDS011;3921;42.266;23.122;2023-05-14T07:43:52;16.30;;;10.73;;
7753;SDS011;3921;42.266;23.122;2023-05-14T07:46:19;16.03;;;11.33;;
7753;SDS011;3921;42.266;23.122;2023-05-14T07:48:46;15.83;;;10.87;;
7753;SDS011;3921;42.266;23.122;2023-05-14T07:51:13;16.63;;;14.83;;
7753;SDS011;3921;42.266;23.122;2023-05-14T07:53:40;17.07;;;13.30;;
7753;SDS011;3921;42.266;23.122;2023-05-14T07:56:08;15.03;;;11.23;;
7753;SDS011;3921;42.266;23.122;2023-05-14T07:58:36;18.37;;;12.63;;
7753;SDS011;3921;42.266;23.122;2023-05-14T08:01:03;15.67;;;10.90;;
7753;SDS011;3921;42.266;23.122;2023-05-14T08:03:31;13.00;;;9.80;;
7753;SDS011;3921;42.266;23.122;2023-05-14T08:05:58;14.00;;;9.27;;
7753;SDS011;3921;42.266;23.122;2023-05-14T08:08:25;12.60;;;9.10;;
7753;SDS011;3921;42.266;23.122;2023-05-14T08:10:52;11.63;;;8.77;;
7753;SDS011;3921;42.266;23.122;2023-05-14T08:13:21;10.63;;;8.30;;
7753;SDS011;3921;42.266;23.122;2023-05-14T08:15:48;8.20;;;7.40;;
7753;SDS011;3921;42.266;23.122;2023-05-14T08:18:15;9.23;;;7.83;;
7753;SDS011;3921;42.266;23.122;2023-05-14T08:20:42;8.43;;;7.10;;
7753;SDS011;3921;42.266;23.122;2023-05-14T08:23:09;7.77;;;6.67;;
7753;SDS011;3921;42.266;23.122;2023-05-14T08:25:36;8.47;;;6.53;;
7753;SDS011;3921;42.266;23.122;2023-05-14T08:28:03;9.33;;;6.47;;
7753;SDS011;3921;42.266;23.122;2023-05-14T08:30:31;7.17;;;6.20;;
7753;SDS011;3921;42.266;23.122;2023-05-14T08:32:59;7.07;;;5.60;;
7753;SDS011;3921;42.266;23.122;2023-05-14T08:35:26;10.43;;;7.47;;
7753;SDS011;3921;42.266;23.122;2023-05-14T08:37:52;12.73;;;7.00;;
7753;SDS011;3921;42.266;23.122;2023-05-14T08:40:21;14.13;;;7.77;;
7753;SDS011;3921;42.266;23.122;2023-05-14T08:42:48;5.87;;;5.00;;
7753;SDS011;3921;42.266;23.122;2023-05-14T08:45:17;6.70;;;5.47;;
7753;SDS011;3921;42.266;23.122;2023-05-14T08:47:47;6.67;;;5.43;;
7753;SDS011;3921;42.266;23.122;2023-05-14T08:50:15;5.13;;;4.67;;
7753;SDS011;3921;42.266;23.122;2023-05-14T08:52:44;6.73;;;4.33;;
7753;SDS011;3921;42.266;23.122;2023-05-14T08:55:11;6.37;;;4.50;;
7753;SDS011;3921;42.266;23.122;2023-05-14T08:57:39;6.10;;;5.20;;
7753;SDS011;3921;42.266;23.122;2023-05-14T09:00:06;5.87;;;4.43;;
7753;SDS011;3921;42.266;23.122;2023-05-14T09:02:36;6.00;;;4.60;;
7753;SDS011;3921;42.266;23.122;2023-05-14T09:05:07;4.90;;;4.50;;
7753;SDS011;3921;42.266;23.122;2023-05-14T09:07:35;4.70;;;3.73;;
7753;SDS011;3921;42.266;23.122;2023-05-14T09:10:02;6.60;;;4.43;;
7753;SDS011;3921;42.266;23.122;2023-05-14T09:12:29;9.60;;;5.23;;
7753;SDS011;3921;42.266;23.122;2023-05-14T09:14:56;6.47;;;4.00;;
7753;SDS011;3921;42.266;23.122;2023-05-14T09:17:24;4.00;;;3.30;;
7753;SDS011;3921;42.266;23.122;2023-05-14T09:19:52;3.87;;;3.47;;
7753;SDS011;3921;42.266;23.122;2023-05-14T09:22:20;3.40;;;3.10;;
7753;SDS011;3921;42.266;23.122;2023-05-14T09:25:00;3.67;;;3.37;;
7753;SDS011;3921;42.266;23.122;2023-05-14T09:27:29;4.00;;;3.13;;
7753;SDS011;3921;42.266;23.122;2023-05-14T09:30:03;5.00;;;3.93;;
7753;SDS011;3921;42.266;23.122;2023-05-14T09:32:34;4.73;;;4.20;;
7753;SDS011;3921;42.266;23.122;2023-05-14T09:35:08;6.43;;;4.33;;
7753;SDS011;3921;42.266;23.122;2023-05-14T09:37:38;11.03;;;6.60;;
7753;SDS011;3921;42.266;23.122;2023-05-14T09:40:07;8.37;;;5.87;;
7753;SDS011;3921;42.266;23.122;2023-05-14T09:42:35;6.33;;;5.07;;
7753;SDS011;3921;42.266;23.122;2023-05-14T09:45:02;6.33;;;5.20;;
7753;SDS011;3921;42.266;23.122;2023-05-14T09:47:30;7.23;;;5.23;;
7753;SDS011;3921;42.266;23.122;2023-05-14T09:49:56;6.43;;;5.00;;
7753;SDS011;3921;42.266;23.122;2023-05-14T09:52:24;6.63;;;5.80;;
7753;SDS011;3921;42.266;23.122;2023-05-14T09:54:53;8.07;;;6.10;;
7753;SDS011;3921;42.266;23.122;2023-05-14T09:57:20;8.17;;;6.20;;
7753;SDS011;3921;42.266;23.122;2023-05-14T09:59:47;6.83;;;5.83;;
7753;SDS011;3921;42.266;23.122;2023-05-14T10:02:15;7.17;;;6.40;;
7753;SDS011;3921;42.266;23.122;2023-05-14T10:04:48;9.60;;;5.90;;
7753;SDS011;3921;42.266;23.122;2023-05-14T10:07:17;8.10;;;5.90;;
7753;SDS011;3921;42.266;23.122;2023-05-14T10:09:49;8.00;;;6.90;;
7753;SDS011;3921;42.266;23.122;2023-05-14T10:12:28;7.90;;;6.27;;
7753;SDS011;3921;42.266;23.122;2023-05-14T10:15:00;6.33;;;5.70;;
7753;SDS011;3921;42.266;23.122;2023-05-14T10:17:30;6.10;;;5.50;;
7753;SDS011;3921;42.266;23.122;2023-05-14T10:19:59;6.33;;;5.60;;
7753;SDS011;3921;42.266;23.122;2023-05-14T10:22:30;6.37;;;5.50;;
7753;SDS011;3921;42.266;23.122;2023-05-14T10:25:00;5.60;;;5.00;;
7753;SDS011;3921;42.266;23.122;2023-05-14T10:27:28;6.20;;;5.50;;
7753;SDS011;3921;42.266;23.122;2023-05-14T10:29:56;6.57;;;5.50;;
7753;SDS011;3921;42.266;23.122;2023-05-14T10:32:23;6.60;;;5.47;;
7753;SDS011;3921;42.266;23.122;2023-05-14T10:34:51;8.37;;;6.77;;
7753;SDS011;3921;42.266;23.122;2023-05-14T10:37:22;8.73;;;7.17;;
7753;SDS011;3921;42.266;23.122;2023-05-14T10:39:51;7.97;;;6.73;;
7753;SDS011;3921;42.266;23.122;2023-05-14T10:42:21;8.97;;;8.00;;
7753;SDS011;3921;42.266;23.122;2023-05-14T10:44:51;8.40;;;7.50;;
7753;SDS011;3921;42.266;23.122;2023-05-14T10:47:20;8.87;;;7.23;;
7753;SDS011;3921;42.266;23.122;2023-05-14T10:49:48;8.03;;;7.23;;
7753;SDS011;3921;42.266;23.122;2023-05-14T10:52:16;8.37;;;7.40;;
7753;SDS011;3921;42.266;23.122;2023-05-14T10:54:47;7.53;;;6.50;;
7753;SDS011;3921;42.266;23.122;2023-05-14T10:57:16;6.60;;;5.97;;
7753;SDS011;3921;42.266;23.122;2023-05-14T10:59:45;8.60;;;6.60;;
7753;SDS011;3921;42.266;23.122;2023-05-14T11:02:23;8.20;;;6.83;;
7753;SDS011;3921;42.266;23.122;2023-05-14T11:05:09;7.73;;;6.00;;
7753;SDS011;3921;42.266;23.122;2023-05-14T11:07:39;13.43;;;8.97;;
7753;SDS011;3921;42.266;23.122;2023-05-14T11:10:07;12.67;;;8.57;;
7753;SDS011;3921;42.266;23.122;2023-05-14T11:12:36;12.87;;;9.00;;
7753;SDS011;3921;42.266;23.122;2023-05-14T11:15:06;11.43;;;8.03;;
7753;SDS011;3921;42.266;23.122;2023-05-14T11:17:35;6.20;;;5.57;;
7753;SDS011;3921;42.266;23.122;2023-05-14T11:20:03;6.90;;;5.40;;
7753;SDS011;3921;42.266;23.122;2023-05-14T11:22:33;9.60;;;6.33;;
7753;SDS011;3921;42.266;23.122;2023-05-14T11:25:00;9.87;;;6.97;;
7753;SDS011;3921;42.266;23.122;2023-05-14T11:27:27;8.07;;;6.50;;
7753;SDS011;3921;42.266;23.122;2023-05-14T11:29:55;8.40;;;6.50;;
7753;SDS011;3921;42.266;23.122;2023-05-14T11:32:22;7.60;;;6.30;;
7753;SDS011;3921;42.266;23.122;2023-05-14T11:34:49;8.83;;;6.37;;
7753;SDS011;3921;42.266;23.122;2023-05-14T11:37:16;13.97;;;8.83;;
7753;SDS011;3921;42.266;23.122;2023-05-14T11:39:49;11.97;;;8.30;;
7753;SDS011;3921;42.266;23.122;2023-05-14T11:42:16;7.73;;;6.90;;
7753;SDS011;3921;42.266;23.122;2023-05-14T11:44:45;7.70;;;6.90;;
7753;SDS011;3921;42.266;23.122;2023-05-14T11:47:13;7.30;;;6.00;;
7753;SDS011;3921;42.266;23.122;2023-05-14T11:49:40;6.70;;;5.57;;
7753;SDS011;3921;42.266;23.122;2023-05-14T11:52:08;6.60;;;5.93;;
7753;SDS011;3921;42.266;23.122;2023-05-14T11:54:38;6.67;;;6.07;;
7753;SDS011;3921;42.266;23.122;2023-05-14T11:57:08;7.40;;;6.13;;
7753;SDS011;3921;42.266;23.122;2023-05-14T11:59:36;7.27;;;6.57;;
7753;SDS011;3921;42.266;23.122;2023-05-14T12:02:04;7.23;;;6.47;;
7753;SDS011;3921;42.266;23.122;2023-05-14T12:04:34;6.60;;;5.87;;
7753;SDS011;3921;42.266;23.122;2023-05-14T12:07:06;6.90;;;6.20;;
7753;SDS011;3921;42.266;23.122;2023-05-14T12:09:35;11.93;;;8.33;;
7753;SDS011;3921;42.266;23.122;2023-05-14T12:12:08;8.67;;;6.37;;
7753;SDS011;3921;42.266;23.122;2023-05-14T12:14:37;5.70;;;5.20;;
7753;SDS011;3921;42.266;23.122;2023-05-14T12:17:09;6.13;;;5.50;;
7753;SDS011;3921;42.266;23.122;2023-05-14T12:19:38;6.20;;;5.60;;
7753;SDS011;3921;42.266;23.122;2023-05-14T12:22:07;7.83;;;6.17;;
7753;SDS011;3921;42.266;23.122;2023-05-14T12:24:34;6.50;;;5.80;;
7753;SDS011;3921;42.266;23.122;2023-05-14T12:27:01;6.43;;;5.83;;
7753;SDS011;3921;42.266;23.122;2023-05-14T12:29:33;6.50;;;5.90;;
7753;SDS011;3921;42.266;23.122;2023-05-14T12:32:01;7.80;;;5.87;;
7753;SDS011;3921;42.266;23.122;2023-05-14T12:34:33;8.30;;;6.97;;
7753;SDS011;3921;42.266;23.122;2023-05-14T12:37:00;8.90;;;8.00;;
7753;SDS011;3921;42.266;23.122;2023-05-14T12:39:28;6.90;;;6.20;;
7753;SDS011;3921;42.266;23.122;2023-05-14T12:41:57;5.77;;;5.27;;
7753;SDS011;3921;42.266;23.122;2023-05-14T12:44:24;5.60;;;5.10;;
7753;SDS011;3921;42.266;23.122;2023-05-14T12:46:53;6.77;;;5.30;;
7753;SDS011;3921;42.266;23.122;2023-05-14T12:49:20;6.90;;;5.90;;
7753;SDS011;3921;42.266;23.122;2023-05-14T12:51:47;6.37;;;5.73;;
7753;SDS011;3921;42.266;23.122;2023-05-14T12:54:14;10.83;;;6.03;;
7753;SDS011;3921;42.266;23.122;2023-05-14T12:56:41;6.53;;;5.37;;
7753;SDS011;3921;42.266;23.122;2023-05-14T12:59:08;5.87;;;5.37;;
7753;SDS011;3921;42.266;23.122;2023-05-14T13:01:35;5.80;;;5.10;;
7753;SDS011;3921;42.266;23.122;2023-05-14T13:04:04;5.40;;;5.00;;
7753;SDS011;3921;42.266;23.122;2023-05-14T13:06:32;5.67;;;5.00;;
7753;SDS011;3921;42.266;23.122;2023-05-14T13:08:59;5.73;;;5.23;;
7753;SDS011;3921;42.266;23.122;2023-05-14T13:11:26;6.87;;;5.10;;
7753;SDS011;3921;42.266;23.122;2023-05-14T13:13:56;5.77;;;5.07;;
7753;SDS011;3921;42.266;23.122;2023-05-14T13:16:23;6.70;;;5.27;;
7753;SDS011;3921;42.266;23.122;2023-05-14T13:18:51;7.03;;;5.83;;
7753;SDS011;3921;42.266;23.122;2023-05-14T13:21:19;5.87;;;5.27;;
7753;SDS011;3921;42.266;23.122;2023-05-14T13:23:46;7.40;;;5.53;;
7753;SDS011;3921;42.266;23.122;2023-05-14T13:26:15;6.23;;;5.30;;
7753;SDS011;3921;42.266;23.122;2023-05-14T13:28:43;6.07;;;5.50;;
7753;SDS011;3921;42.266;23.122;2023-05-14T13:31:10;7.13;;;5.57;;
7753;SDS011;3921;42.266;23.122;2023-05-14T13:33:39;7.30;;;6.47;;
7753;SDS011;3921;42.266;23.122;2023-05-14T13:36:14;9.37;;;7.23;;
7753;SDS011;3921;42.266;23.122;2023-05-14T13:38:43;8.00;;;6.73;;
7753;SDS011;3921;42.266;23.122;2023-05-14T13:41:11;8.50;;;6.50;;
7753;SDS011;3921;42.266;23.122;2023-05-14T13:43:38;7.50;;;6.80;;
7753;SDS011;3921;42.266;23.122;2023-05-14T13:46:05;8.30;;;6.70;;
7753;SDS011;3921;42.266;23.122;2023-05-14T13:48:32;7.77;;;6.97;;
7753;SDS011;3921;42.266;23.122;2023-05-14T13:51:00;9.37;;;7.10;;
7753;SDS011;3921;42.266;23.122;2023-05-14T13:53:27;9.70;;;7.47;;
7753;SDS011;3921;42.266;23.122;2023-05-14T13:55:56;10.00;;;7.80;;
7753;SDS011;3921;42.266;23.122;2023-05-14T13:58:25;9.20;;;7.93;;
7753;SDS011;3921;42.266;23.122;2023-05-14T14:00:52;10.57;;;7.90;;
7753;SDS011;3921;42.266;23.122;2023-05-14T14:03:20;10.30;;;7.80;;
7753;SDS011;3921;42.266;23.122;2023-05-14T14:05:47;8.80;;;7.87;;
7753;SDS011;3921;42.266;23.122;2023-05-14T14:08:15;9.50;;;8.27;;
7753;SDS011;3921;42.266;23.122;2023-05-14T14:10:42;11.47;;;8.20;;
7753;SDS011;3921;42.266;23.122;2023-05-14T14:13:11;8.50;;;7.60;;
7753;SDS011;3921;42.266;23.122;2023-05-14T14:15:38;8.90;;;7.37;;
7753;SDS011;3921;42.266;23.122;2023-05-14T14:18:05;8.93;;;7.17;;
7753;SDS011;3921;42.266;23.122;2023-05-14T14:20:32;7.93;;;6.87;;
7753;SDS011;3921;42.266;23.122;2023-05-14T14:22:59;9.67;;;7.70;;
7753;SDS011;3921;42.266;23.122;2023-05-14T14:25:26;11.07;;;8.53;;
7753;SDS011;3921;42.266;23.122;2023-05-14T14:27:53;10.20;;;8.23;;
7753;SDS011;3921;42.266;23.122;2023-05-14T14:30:21;9.30;;;8.30;;
7753;SDS011;3921;42.266;23.122;2023-05-14T14:32:49;11.07;;;8.13;;
7753;SDS011;3921;42.266;23.122;2023-05-14T14:35:16;9.20;;;7.40;;
7753;SDS011;3921;42.266;23.122;2023-05-14T14:37:44;10.30;;;8.13;;
7753;SDS011;3921;42.266;23.122;2023-05-14T14:40:14;12.67;;;8.67;;
7753;SDS011;3921;42.266;23.122;2023-05-14T14:42:42;16.83;;;10.80;;
7753;SDS011;3921;42.266;23.122;2023-05-14T14:45:09;14.00;;;9.63;;
7753;SDS011;3921;42.266;23.122;2023-05-14T14:47:42;12.53;;;9.27;;
7753;SDS011;3921;42.266;23.122;2023-05-14T14:50:10;14.17;;;10.10;;
7753;SDS011;3921;42.266;23.122;2023-05-14T14:52:38;13.00;;;9.47;;
7753;SDS011;3921;42.266;23.122;2023-05-14T14:55:07;12.67;;;10.53;;
7753;SDS011;3921;42.266;23.122;2023-05-14T14:57:35;19.80;;;14.60;;
7753;SDS011;3921;42.266;23.122;2023-05-14T15:00:02;22.90;;;16.90;;
7753;SDS011;3921;42.266;23.122;2023-05-14T15:02:30;19.80;;;15.97;;